sensor_id;sensor_type;location;lat;lon;timestamp;P1;durP1;ratioP1;P2;durP2;ratioP2
25125;SDS011;13106;50.808;5.670;2023-05-27T00:01:53;22.45;;;5.35;;
25125;SDS011;13106;50.808;5.670;2023-05-27T00:04:19;21.73;;;4.93;;
25125;SDS011;13106;50.808;5.670;2023-05-27T00:06:45;24.20;;;6.03;;
25125;SDS011;13106;50.808;5.670;2023-05-27T00:09:11;17.27;;;5.35;;
25125;SDS011;13106;50.808;5.670;2023-05-27T00:11:37;16.42;;;4.93;;
25125;SDS011;13106;50.808;5.670;2023-05-27T00:14:03;16.85;;;4.43;;
25125;SDS011;13106;50.808;5.670;2023-05-27T00:16:29;13.52;;;4.70;;
25125;SDS011;13106;50.808;5.670;2023-05-27T00:18:56;17.17;;;4.93;;
25125;SDS011;13106;50.808;5.670;2023-05-27T00:21:23;20.00;;;4.93;;
25125;SDS011;13106;50.808;5.670;2023-05-27T00:23:51;19.80;;;6.35;;
25125;SDS011;13106;50.808;5.670;2023-05-27T00:26:17;24.15;;;5.38;;
25125;SDS011;13106;50.808;5.670;2023-05-27T00:28:43;18.23;;;4.72;;
25125;SDS011;13106;50.808;5.670;2023-05-27T00:31:09;20.98;;;5.45;;
25125;SDS011;13106;50.808;5.670;2023-05-27T00:33:35;19.70;;;5.60;;
25125;SDS011;13106;50.808;5.670;2023-05-27T00:36:01;17.00;;;4.65;;
25125;SDS011;13106;50.808;5.670;2023-05-27T00:38:28;19.15;;;4.88;;
25125;SDS011;13106;50.808;5.670;2023-05-27T00:40:54;23.67;;;6.53;;
25125;SDS011;13106;50.808;5.670;2023-05-27T00:43:21;21.02;;;4.90;;
25125;SDS011;13106;50.808;5.670;2023-05-27T00:45:47;21.15;;;5.70;;
25125;SDS011;13106;50.808;5.670;2023-05-27T00:48:13;20.92;;;5.55;;
25125;SDS011;13106;50.808;5.670;2023-05-27T00:50:39;25.70;;;5.88;;
25125;SDS011;13106;50.808;5.670;2023-05-27T00:53:05;16.10;;;5.45;;
25125;SDS011;13106;50.808;5.670;2023-05-27T00:55:31;19.45;;;5.47;;
25125;SDS011;13106;50.808;5.670;2023-05-27T00:58:05;17.33;;;5.47;;
25125;SDS011;13106;50.808;5.670;2023-05-27T01:00:35;20.13;;;5.53;;
25125;SDS011;13106;50.808;5.670;2023-05-27T01:03:03;16.20;;;4.85;;
25125;SDS011;13106;50.808;5.670;2023-05-27T01:05:31;18.95;;;5.45;;
25125;SDS011;13106;50.808;5.670;2023-05-27T01:10:40;20.90;;;5.07;;
25125;SDS011;13106;50.808;5.670;2023-05-27T01:15:36;18.73;;;5.28;;
25125;SDS011;13106;50.808;5.670;2023-05-27T01:18:02;21.50;;;5.10;;
25125;SDS011;13106;50.808;5.670;2023-05-27T01:20:28;18.02;;;5.07;;
25125;SDS011;13106;50.808;5.670;2023-05-27T01:22:55;21.60;;;5.63;;
25125;SDS011;13106;50.808;5.670;2023-05-27T01:25:22;17.92;;;5.60;;
25125;SDS011;13106;50.808;5.670;2023-05-27T01:27:49;17.10;;;5.72;;
25125;SDS011;13106;50.808;5.670;2023-05-27T01:30:17;19.60;;;5.45;;
25125;SDS011;13106;50.808;5.670;2023-05-27T01:32:53;18.60;;;5.35;;
25125;SDS011;13106;50.808;5.670;2023-05-27T01:35:30;18.50;;;5.40;;
25125;SDS011;13106;50.808;5.670;2023-05-27T01:37:59;21.55;;;6.18;;
25125;SDS011;13106;50.808;5.670;2023-05-27T01:40:27;21.45;;;5.40;;
25125;SDS011;13106;50.808;5.670;2023-05-27T01:42:53;22.70;;;5.95;;
25125;SDS011;13106;50.808;5.670;2023-05-27T01:45:22;19.02;;;5.45;;
25125;SDS011;13106;50.808;5.670;2023-05-27T01:47:48;22.13;;;6.03;;
25125;SDS011;13106;50.808;5.670;2023-05-27T01:50:14;18.08;;;5.75;;
25125;SDS011;13106;50.808;5.670;2023-05-27T01:52:40;23.70;;;5.57;;
25125;SDS011;13106;50.808;5.670;2023-05-27T01:55:06;18.25;;;5.55;;
25125;SDS011;13106;50.808;5.670;2023-05-27T01:57:33;18.95;;;5.35;;
25125;SDS011;13106;50.808;5.670;2023-05-27T01:59:59;17.85;;;5.85;;
25125;SDS011;13106;50.808;5.670;2023-05-27T02:02:25;17.60;;;6.03;;
25125;SDS011;13106;50.808;5.670;2023-05-27T02:04:51;25.60;;;6.40;;
25125;SDS011;13106;50.808;5.670;2023-05-27T02:07:17;17.95;;;5.63;;
25125;SDS011;13106;50.808;5.670;2023-05-27T02:09:44;23.70;;;7.35;;
25125;SDS011;13106;50.808;5.670;2023-05-27T02:12:10;27.30;;;6.68;;
25125;SDS011;13106;50.808;5.670;2023-05-27T02:14:37;19.80;;;6.35;;
25125;SDS011;13106;50.808;5.670;2023-05-27T02:17:04;22.35;;;9.95;;
25125;SDS011;13106;50.808;5.670;2023-05-27T02:19:30;22.13;;;6.47;;
25125;SDS011;13106;50.808;5.670;2023-05-27T02:21:56;21.83;;;6.20;;
25125;SDS011;13106;50.808;5.670;2023-05-27T02:24:22;22.20;;;6.78;;
25125;SDS011;13106;50.808;5.670;2023-05-27T02:26:48;20.88;;;6.85;;
25125;SDS011;13106;50.808;5.670;2023-05-27T02:29:14;20.70;;;6.00;;
25125;SDS011;13106;50.808;5.670;2023-05-27T02:31:40;23.33;;;6.13;;
25125;SDS011;13106;50.808;5.670;2023-05-27T02:34:06;23.33;;;6.40;;
25125;SDS011;13106;50.808;5.670;2023-05-27T02:36:32;22.80;;;6.47;;
25125;SDS011;13106;50.808;5.670;2023-05-27T02:38:59;26.38;;;7.25;;
25125;SDS011;13106;50.808;5.670;2023-05-27T02:41:25;22.67;;;6.32;;
25125;SDS011;13106;50.808;5.670;2023-05-27T02:43:52;25.98;;;6.97;;
25125;SDS011;13106;50.808;5.670;2023-05-27T02:46:18;19.65;;;6.20;;
25125;SDS011;13106;50.808;5.670;2023-05-27T02:48:44;22.15;;;5.97;;
25125;SDS011;13106;50.808;5.670;2023-05-27T02:51:11;21.67;;;6.18;;
25125;SDS011;13106;50.808;5.670;2023-05-27T02:53:37;18.30;;;6.03;;
25125;SDS011;13106;50.808;5.670;2023-05-27T02:56:03;21.45;;;5.88;;
25125;SDS011;13106;50.808;5.670;2023-05-27T02:58:29;21.88;;;5.68;;
25125;SDS011;13106;50.808;5.670;2023-05-27T03:00:55;22.42;;;5.78;;
25125;SDS011;13106;50.808;5.670;2023-05-27T03:03:21;19.52;;;6.22;;
25125;SDS011;13106;50.808;5.670;2023-05-27T03:05:48;20.10;;;6.20;;
25125;SDS011;13106;50.808;5.670;2023-05-27T03:08:14;22.42;;;6.80;;
25125;SDS011;13106;50.808;5.670;2023-05-27T03:10:41;19.60;;;5.93;;
25125;SDS011;13106;50.808;5.670;2023-05-27T03:13:07;18.83;;;6.38;;
25125;SDS011;13106;50.808;5.670;2023-05-27T03:15:33;23.48;;;6.43;;
25125;SDS011;13106;50.808;5.670;2023-05-27T03:18:00;20.98;;;7.18;;
25125;SDS011;13106;50.808;5.670;2023-05-27T03:20:28;25.52;;;7.20;;
25125;SDS011;13106;50.808;5.670;2023-05-27T03:22:54;20.95;;;5.28;;
25125;SDS011;13106;50.808;5.670;2023-05-27T03:25:21;16.63;;;6.40;;
25125;SDS011;13106;50.808;5.670;2023-05-27T03:27:47;25.70;;;6.80;;
25125;SDS011;13106;50.808;5.670;2023-05-27T03:30:13;18.98;;;6.50;;
25125;SDS011;13106;50.808;5.670;2023-05-27T03:32:39;15.27;;;6.30;;
25125;SDS011;13106;50.808;5.670;2023-05-27T03:35:05;20.67;;;6.72;;
25125;SDS011;13106;50.808;5.670;2023-05-27T03:37:31;20.17;;;6.45;;
25125;SDS011;13106;50.808;5.670;2023-05-27T03:39:58;19.40;;;6.45;;
25125;SDS011;13106;50.808;5.670;2023-05-27T03:42:24;21.48;;;6.47;;
25125;SDS011;13106;50.808;5.670;2023-05-27T03:44:50;19.65;;;6.65;;
25125;SDS011;13106;50.808;5.670;2023-05-27T03:47:16;21.95;;;6.72;;
25125;SDS011;13106;50.808;5.670;2023-05-27T03:49:45;20.95;;;5.80;;
25125;SDS011;13106;50.808;5.670;2023-05-27T03:52:11;18.65;;;5.88;;
25125;SDS011;13106;50.808;5.670;2023-05-27T03:54:37;17.20;;;5.63;;
25125;SDS011;13106;50.808;5.670;2023-05-27T03:57:03;24.77;;;6.75;;
25125;SDS011;13106;50.808;5.670;2023-05-27T03:59:30;20.70;;;6.18;;
25125;SDS011;13106;50.808;5.670;2023-05-27T04:01:56;25.27;;;6.55;;
25125;SDS011;13106;50.808;5.670;2023-05-27T04:04:22;20.38;;;6.18;;
25125;SDS011;13106;50.808;5.670;2023-05-27T04:06:48;20.23;;;6.38;;
25125;SDS011;13106;50.808;5.670;2023-05-27T04:09:14;21.75;;;7.32;;
25125;SDS011;13106;50.808;5.670;2023-05-27T04:11:40;25.45;;;6.47;;
25125;SDS011;13106;50.808;5.670;2023-05-27T04:14:06;17.88;;;6.95;;
25125;SDS011;13106;50.808;5.670;2023-05-27T04:16:32;22.05;;;6.97;;
25125;SDS011;13106;50.808;5.670;2023-05-27T04:19:00;20.42;;;6.78;;
25125;SDS011;13106;50.808;5.670;2023-05-27T04:21:26;27.73;;;6.75;;
25125;SDS011;13106;50.808;5.670;2023-05-27T04:23:52;21.98;;;6.90;;
25125;SDS011;13106;50.808;5.670;2023-05-27T04:26:18;21.65;;;6.35;;
25125;SDS011;13106;50.808;5.670;2023-05-27T04:28:45;20.00;;;6.45;;
25125;SDS011;13106;50.808;5.670;2023-05-27T04:31:11;21.73;;;6.32;;
25125;SDS011;13106;50.808;5.670;2023-05-27T04:33:41;21.55;;;6.43;;
25125;SDS011;13106;50.808;5.670;2023-05-27T04:36:07;23.20;;;6.15;;
25125;SDS011;13106;50.808;5.670;2023-05-27T04:38:34;21.50;;;6.18;;
25125;SDS011;13106;50.808;5.670;2023-05-27T04:41:00;26.15;;;7.22;;
25125;SDS011;13106;50.808;5.670;2023-05-27T04:43:26;19.58;;;6.88;;
25125;SDS011;13106;50.808;5.670;2023-05-27T04:45:54;21.55;;;6.25;;
25125;SDS011;13106;50.808;5.670;2023-05-27T04:48:22;20.13;;;6.35;;
25125;SDS011;13106;50.808;5.670;2023-05-27T04:50:48;24.35;;;6.65;;
25125;SDS011;13106;50.808;5.670;2023-05-27T04:53:17;22.55;;;6.57;;
25125;SDS011;13106;50.808;5.670;2023-05-27T04:55:43;20.90;;;7.00;;
25125;SDS011;13106;50.808;5.670;2023-05-27T04:58:10;20.63;;;6.60;;
25125;SDS011;13106;50.808;5.670;2023-05-27T05:00:37;23.33;;;6.85;;
25125;SDS011;13106;50.808;5.670;2023-05-27T05:03:07;23.95;;;6.78;;
25125;SDS011;13106;50.808;5.670;2023-05-27T05:05:33;18.80;;;6.50;;
25125;SDS011;13106;50.808;5.670;2023-05-27T05:07:59;21.42;;;6.75;;
25125;SDS011;13106;50.808;5.670;2023-05-27T05:10:25;20.55;;;6.85;;
25125;SDS011;13106;50.808;5.670;2023-05-27T05:12:51;22.33;;;7.03;;
25125;SDS011;13106;50.808;5.670;2023-05-27T05:15:18;18.13;;;5.85;;
25125;SDS011;13106;50.808;5.670;2023-05-27T05:17:44;21.02;;;7.05;;
25125;SDS011;13106;50.808;5.670;2023-05-27T05:20:10;23.80;;;6.38;;
25125;SDS011;13106;50.808;5.670;2023-05-27T05:22:37;18.90;;;5.90;;
25125;SDS011;13106;50.808;5.670;2023-05-27T05:25:03;20.90;;;6.78;;
25125;SDS011;13106;50.808;5.670;2023-05-27T05:27:29;19.58;;;7.00;;
25125;SDS011;13106;50.808;5.670;2023-05-27T05:29:55;20.92;;;7.10;;
25125;SDS011;13106;50.808;5.670;2023-05-27T05:32:21;20.38;;;7.25;;
25125;SDS011;13106;50.808;5.670;2023-05-27T05:34:47;16.42;;;6.88;;
25125;SDS011;13106;50.808;5.670;2023-05-27T05:37:13;21.92;;;6.20;;
25125;SDS011;13106;50.808;5.670;2023-05-27T05:39:40;19.80;;;6.47;;
25125;SDS011;13106;50.808;5.670;2023-05-27T05:42:08;21.95;;;7.00;;
25125;SDS011;13106;50.808;5.670;2023-05-27T05:44:34;18.83;;;7.05;;
25125;SDS011;13106;50.808;5.670;2023-05-27T05:47:00;18.75;;;6.07;;
25125;SDS011;13106;50.808;5.670;2023-05-27T05:49:26;18.33;;;5.90;;
25125;SDS011;13106;50.808;5.670;2023-05-27T05:51:52;19.58;;;6.32;;
25125;SDS011;13106;50.808;5.670;2023-05-27T05:54:18;23.50;;;6.75;;
25125;SDS011;13106;50.808;5.670;2023-05-27T05:56:44;23.55;;;7.00;;
25125;SDS011;13106;50.808;5.670;2023-05-27T05:59:10;16.40;;;7.00;;
25125;SDS011;13106;50.808;5.670;2023-05-27T06:01:36;22.45;;;7.28;;
25125;SDS011;13106;50.808;5.670;2023-05-27T06:04:02;16.55;;;6.43;;
25125;SDS011;13106;50.808;5.670;2023-05-27T06:06:29;21.45;;;6.25;;
25125;SDS011;13106;50.808;5.670;2023-05-27T06:08:56;19.27;;;5.85;;
25125;SDS011;13106;50.808;5.670;2023-05-27T06:11:22;20.45;;;6.28;;
25125;SDS011;13106;50.808;5.670;2023-05-27T06:13:48;23.70;;;6.80;;
25125;SDS011;13106;50.808;5.670;2023-05-27T06:16:14;19.55;;;6.32;;
25125;SDS011;13106;50.808;5.670;2023-05-27T06:18:40;21.85;;;6.38;;
25125;SDS011;13106;50.808;5.670;2023-05-27T06:21:10;22.83;;;5.70;;
25125;SDS011;13106;50.808;5.670;2023-05-27T06:23:36;21.27;;;6.32;;
25125;SDS011;13106;50.808;5.670;2023-05-27T06:26:02;20.08;;;7.10;;
25125;SDS011;13106;50.808;5.670;2023-05-27T06:28:28;18.05;;;5.57;;
25125;SDS011;13106;50.808;5.670;2023-05-27T06:30:55;18.55;;;6.18;;
25125;SDS011;13106;50.808;5.670;2023-05-27T06:33:21;24.02;;;6.63;;
25125;SDS011;13106;50.808;5.670;2023-05-27T06:35:47;16.85;;;6.20;;
25125;SDS011;13106;50.808;5.670;2023-05-27T06:38:13;23.85;;;7.00;;
25125;SDS011;13106;50.808;5.670;2023-05-27T06:40:39;27.73;;;6.90;;
25125;SDS011;13106;50.808;5.670;2023-05-27T06:43:05;25.50;;;6.78;;
25125;SDS011;13106;50.808;5.670;2023-05-27T06:45:31;22.00;;;6.15;;
25125;SDS011;13106;50.808;5.670;2023-05-27T06:47:58;16.55;;;5.90;;
25125;SDS011;13106;50.808;5.670;2023-05-27T06:50:24;20.30;;;6.28;;
25125;SDS011;13106;50.808;5.670;2023-05-27T06:52:50;24.67;;;6.50;;
25125;SDS011;13106;50.808;5.670;2023-05-27T06:55:17;17.27;;;5.75;;
25125;SDS011;13106;50.808;5.670;2023-05-27T06:57:43;21.95;;;6.85;;
25125;SDS011;13106;50.808;5.670;2023-05-27T07:00:09;19.05;;;6.18;;
25125;SDS011;13106;50.808;5.670;2023-05-27T07:02:36;19.45;;;6.45;;
25125;SDS011;13106;50.808;5.670;2023-05-27T07:05:02;16.60;;;5.97;;
25125;SDS011;13106;50.808;5.670;2023-05-27T07:07:28;14.18;;;6.28;;
25125;SDS011;13106;50.808;5.670;2023-05-27T07:09:54;24.63;;;7.25;;
25125;SDS011;13106;50.808;5.670;2023-05-27T07:12:20;17.80;;;6.10;;
25125;SDS011;13106;50.808;5.670;2023-05-27T07:14:46;21.25;;;6.22;;
25125;SDS011;13106;50.808;5.670;2023-05-27T07:17:12;26.92;;;7.03;;
25125;SDS011;13106;50.808;5.670;2023-05-27T07:19:38;16.70;;;6.18;;
25125;SDS011;13106;50.808;5.670;2023-05-27T07:22:04;19.08;;;5.85;;
25125;SDS011;13106;50.808;5.670;2023-05-27T07:24:31;17.20;;;6.05;;
25125;SDS011;13106;50.808;5.670;2023-05-27T07:26:57;20.92;;;6.03;;
25125;SDS011;13106;50.808;5.670;2023-05-27T07:29:23;17.38;;;5.55;;
25125;SDS011;13106;50.808;5.670;2023-05-27T07:31:49;20.13;;;6.07;;
25125;SDS011;13106;50.808;5.670;2023-05-27T07:34:15;17.02;;;7.15;;
25125;SDS011;13106;50.808;5.670;2023-05-27T07:36:41;18.42;;;6.00;;
25125;SDS011;13106;50.808;5.670;2023-05-27T07:39:07;23.52;;;6.38;;
25125;SDS011;13106;50.808;5.670;2023-05-27T07:41:33;20.63;;;6.28;;
25125;SDS011;13106;50.808;5.670;2023-05-27T07:43:59;23.25;;;6.10;;
25125;SDS011;13106;50.808;5.670;2023-05-27T07:46:25;20.02;;;5.85;;
25125;SDS011;13106;50.808;5.670;2023-05-27T07:48:51;20.13;;;6.20;;
25125;SDS011;13106;50.808;5.670;2023-05-27T07:51:17;19.65;;;6.30;;
25125;SDS011;13106;50.808;5.670;2023-05-27T07:53:43;19.45;;;5.72;;
25125;SDS011;13106;50.808;5.670;2023-05-27T07:56:09;21.10;;;6.13;;
25125;SDS011;13106;50.808;5.670;2023-05-27T07:58:35;18.65;;;6.22;;
25125;SDS011;13106;50.808;5.670;2023-05-27T08:01:01;16.77;;;5.70;;
25125;SDS011;13106;50.808;5.670;2023-05-27T08:03:27;18.73;;;5.90;;
25125;SDS011;13106;50.808;5.670;2023-05-27T08:05:53;20.63;;;5.60;;
25125;SDS011;13106;50.808;5.670;2023-05-27T08:08:19;26.13;;;6.65;;
25125;SDS011;13106;50.808;5.670;2023-05-27T08:10:45;19.50;;;5.20;;
25125;SDS011;13106;50.808;5.670;2023-05-27T08:13:11;18.08;;;5.65;;
25125;SDS011;13106;50.808;5.670;2023-05-27T08:15:37;19.83;;;6.13;;
25125;SDS011;13106;50.808;5.670;2023-05-27T08:18:03;17.08;;;5.82;;
25125;SDS011;13106;50.808;5.670;2023-05-27T08:20:29;20.30;;;6.45;;
25125;SDS011;13106;50.808;5.670;2023-05-27T08:22:56;15.30;;;5.22;;
25125;SDS011;13106;50.808;5.670;2023-05-27T08:25:22;20.13;;;5.60;;
25125;SDS011;13106;50.808;5.670;2023-05-27T08:27:52;17.65;;;4.97;;
25125;SDS011;13106;50.808;5.670;2023-05-27T08:30:20;20.23;;;5.20;;
25125;SDS011;13106;50.808;5.670;2023-05-27T08:32:46;15.48;;;5.78;;
25125;SDS011;13106;50.808;5.670;2023-05-27T08:35:12;15.75;;;4.97;;
25125;SDS011;13106;50.808;5.670;2023-05-27T08:37:38;16.30;;;5.03;;
25125;SDS011;13106;50.808;5.670;2023-05-27T08:40:06;18.23;;;5.00;;
25125;SDS011;13106;50.808;5.670;2023-05-27T08:42:33;15.85;;;4.78;;
25125;SDS011;13106;50.808;5.670;2023-05-27T08:45:00;14.75;;;4.65;;
25125;SDS011;13106;50.808;5.670;2023-05-27T08:47:27;17.17;;;5.22;;
25125;SDS011;13106;50.808;5.670;2023-05-27T08:49:55;15.32;;;5.22;;
25125;SDS011;13106;50.808;5.670;2023-05-27T08:52:23;23.40;;;6.05;;
25125;SDS011;13106;50.808;5.670;2023-05-27T08:54:50;21.65;;;5.03;;
25125;SDS011;13106;50.808;5.670;2023-05-27T08:57:17;16.85;;;4.90;;
25125;SDS011;13106;50.808;5.670;2023-05-27T08:59:46;21.93;;;4.97;;
25125;SDS011;13106;50.808;5.670;2023-05-27T09:02:13;17.23;;;4.38;;
25125;SDS011;13106;50.808;5.670;2023-05-27T09:04:39;16.50;;;4.45;;
25125;SDS011;13106;50.808;5.670;2023-05-27T09:07:06;16.52;;;4.82;;
25125;SDS011;13106;50.808;5.670;2023-05-27T09:09:32;15.60;;;4.32;;
25125;SDS011;13106;50.808;5.670;2023-05-27T09:12:02;14.38;;;4.47;;
25125;SDS011;13106;50.808;5.670;2023-05-27T09:16:55;15.40;;;4.63;;
25125;SDS011;13106;50.808;5.670;2023-05-27T09:19:21;13.23;;;4.25;;
25125;SDS011;13106;50.808;5.670;2023-05-27T09:21:50;18.17;;;4.30;;
25125;SDS011;13106;50.808;5.670;2023-05-27T09:24:17;19.48;;;4.90;;
25125;SDS011;13106;50.808;5.670;2023-05-27T09:26:43;21.63;;;4.70;;
25125;SDS011;13106;50.808;5.670;2023-05-27T09:29:09;16.27;;;4.30;;
25125;SDS011;13106;50.808;5.670;2023-05-27T09:31:39;14.50;;;4.88;;
25125;SDS011;13106;50.808;5.670;2023-05-27T09:34:09;17.13;;;4.97;;
25125;SDS011;13106;50.808;5.670;2023-05-27T09:36:41;15.57;;;4.22;;
25125;SDS011;13106;50.808;5.670;2023-05-27T09:39:07;17.63;;;4.10;;
25125;SDS011;13106;50.808;5.670;2023-05-27T09:41:33;15.77;;;4.47;;
25125;SDS011;13106;50.808;5.670;2023-05-27T09:44:01;14.05;;;4.00;;
25125;SDS011;13106;50.808;5.670;2023-05-27T09:46:31;13.88;;;4.43;;
25125;SDS011;13106;50.808;5.670;2023-05-27T09:48:58;17.33;;;4.63;;
25125;SDS011;13106;50.808;5.670;2023-05-27T09:51:25;15.18;;;4.22;;
25125;SDS011;13106;50.808;5.670;2023-05-27T09:53:53;16.23;;;3.67;;
25125;SDS011;13106;50.808;5.670;2023-05-27T09:56:25;13.80;;;4.55;;
25125;SDS011;13106;50.808;5.670;2023-05-27T09:58:55;11.10;;;3.80;;
25125;SDS011;13106;50.808;5.670;2023-05-27T10:01:21;15.40;;;4.45;;
25125;SDS011;13106;50.808;5.670;2023-05-27T10:03:50;11.75;;;3.42;;
25125;SDS011;13106;50.808;5.670;2023-05-27T10:06:17;14.55;;;3.47;;
25125;SDS011;13106;50.808;5.670;2023-05-27T10:08:43;14.40;;;4.30;;
25125;SDS011;13106;50.808;5.670;2023-05-27T10:11:10;14.18;;;3.92;;
25125;SDS011;13106;50.808;5.670;2023-05-27T10:13:36;13.40;;;3.63;;
25125;SDS011;13106;50.808;5.670;2023-05-27T10:16:03;15.40;;;4.40;;
25125;SDS011;13106;50.808;5.670;2023-05-27T10:18:29;14.30;;;4.70;;
25125;SDS011;13106;50.808;5.670;2023-05-27T10:20:56;12.68;;;3.95;;
25125;SDS011;13106;50.808;5.670;2023-05-27T10:23:26;15.25;;;4.43;;
25125;SDS011;13106;50.808;5.670;2023-05-27T10:25:53;11.90;;;3.53;;
25125;SDS011;13106;50.808;5.670;2023-05-27T10:30:53;13.65;;;3.63;;
25125;SDS011;13106;50.808;5.670;2023-05-27T10:33:29;14.30;;;3.75;;
25125;SDS011;13106;50.808;5.670;2023-05-27T10:35:56;17.35;;;5.97;;
25125;SDS011;13106;50.808;5.670;2023-05-27T10:38:22;13.38;;;3.83;;
25125;SDS011;13106;50.808;5.670;2023-05-27T10:40:48;14.10;;;3.97;;
25125;SDS011;13106;50.808;5.670;2023-05-27T10:43:26;14.52;;;3.83;;
25125;SDS011;13106;50.808;5.670;2023-05-27T10:46:00;13.10;;;4.07;;
25125;SDS011;13106;50.808;5.670;2023-05-27T10:48:30;13.40;;;3.88;;
25125;SDS011;13106;50.808;5.670;2023-05-27T10:50:58;12.00;;;3.45;;
25125;SDS011;13106;50.808;5.670;2023-05-27T10:53:25;12.13;;;3.75;;
25125;SDS011;13106;50.808;5.670;2023-05-27T10:55:51;13.07;;;3.72;;
25125;SDS011;13106;50.808;5.670;2023-05-27T10:58:18;15.65;;;3.45;;
25125;SDS011;13106;50.808;5.670;2023-05-27T11:00:45;16.27;;;3.92;;
25125;SDS011;13106;50.808;5.670;2023-05-27T11:03:23;12.50;;;3.80;;
25125;SDS011;13106;50.808;5.670;2023-05-27T11:06:05;12.73;;;3.20;;
25125;SDS011;13106;50.808;5.670;2023-05-27T11:08:34;12.50;;;3.50;;
25125;SDS011;13106;50.808;5.670;2023-05-27T11:11:05;13.00;;;3.75;;
25125;SDS011;13106;50.808;5.670;2023-05-27T11:15:58;11.57;;;3.30;;
25125;SDS011;13106;50.808;5.670;2023-05-27T11:18:24;10.73;;;3.20;;
25125;SDS011;13106;50.808;5.670;2023-05-27T11:20:50;12.43;;;3.65;;
25125;SDS011;13106;50.808;5.670;2023-05-27T11:23:16;10.75;;;3.58;;
25125;SDS011;13106;50.808;5.670;2023-05-27T11:25:42;12.48;;;3.78;;
25125;SDS011;13106;50.808;5.670;2023-05-27T11:28:15;10.85;;;3.10;;
25125;SDS011;13106;50.808;5.670;2023-05-27T11:30:42;9.95;;;3.35;;
25125;SDS011;13106;50.808;5.670;2023-05-27T11:33:08;13.63;;;3.63;;
25125;SDS011;13106;50.808;5.670;2023-05-27T11:35:34;12.27;;;4.25;;
25125;SDS011;13106;50.808;5.670;2023-05-27T11:38:00;13.48;;;3.92;;
25125;SDS011;13106;50.808;5.670;2023-05-27T11:40:35;13.73;;;3.90;;
25125;SDS011;13106;50.808;5.670;2023-05-27T11:43:04;13.65;;;4.05;;
25125;SDS011;13106;50.808;5.670;2023-05-27T11:45:34;12.60;;;3.40;;
25125;SDS011;13106;50.808;5.670;2023-05-27T11:48:01;14.20;;;3.88;;
25125;SDS011;13106;50.808;5.670;2023-05-27T11:50:28;13.48;;;3.58;;
25125;SDS011;13106;50.808;5.670;2023-05-27T11:52:55;10.85;;;2.88;;
25125;SDS011;13106;50.808;5.670;2023-05-27T11:55:24;13.63;;;3.95;;
25125;SDS011;13106;50.808;5.670;2023-05-27T11:57:50;12.93;;;3.50;;
25125;SDS011;13106;50.808;5.670;2023-05-27T12:00:16;11.93;;;3.42;;
25125;SDS011;13106;50.808;5.670;2023-05-27T12:02:43;12.23;;;3.63;;
25125;SDS011;13106;50.808;5.670;2023-05-27T12:05:09;15.27;;;3.90;;
25125;SDS011;13106;50.808;5.670;2023-05-27T12:07:36;10.93;;;3.50;;
25125;SDS011;13106;50.808;5.670;2023-05-27T12:10:05;16.17;;;4.03;;
25125;SDS011;13106;50.808;5.670;2023-05-27T12:12:31;13.98;;;3.42;;
25125;SDS011;13106;50.808;5.670;2023-05-27T12:14:59;12.07;;;3.47;;
25125;SDS011;13106;50.808;5.670;2023-05-27T12:17:25;11.38;;;3.42;;
25125;SDS011;13106;50.808;5.670;2023-05-27T12:19:51;12.50;;;3.05;;
25125;SDS011;13106;50.808;5.670;2023-05-27T12:22:17;11.43;;;3.17;;
25125;SDS011;13106;50.808;5.670;2023-05-27T12:24:43;11.88;;;3.38;;
25125;SDS011;13106;50.808;5.670;2023-05-27T12:27:09;14.18;;;3.72;;
25125;SDS011;13106;50.808;5.670;2023-05-27T12:29:36;10.73;;;3.25;;
25125;SDS011;13106;50.808;5.670;2023-05-27T12:32:02;12.48;;;3.58;;
25125;SDS011;13106;50.808;5.670;2023-05-27T12:34:28;12.65;;;3.38;;
25125;SDS011;13106;50.808;5.670;2023-05-27T12:36:54;14.75;;;4.70;;
25125;SDS011;13106;50.808;5.670;2023-05-27T12:39:20;13.30;;;3.55;;
25125;SDS011;13106;50.808;5.670;2023-05-27T12:41:47;13.70;;;3.30;;
25125;SDS011;13106;50.808;5.670;2023-05-27T12:44:13;12.10;;;3.75;;
25125;SDS011;13106;50.808;5.670;2023-05-27T12:46:39;10.30;;;3.47;;
25125;SDS011;13106;50.808;5.670;2023-05-27T12:49:06;12.25;;;3.45;;
25125;SDS011;13106;50.808;5.670;2023-05-27T12:51:33;14.50;;;3.72;;
25125;SDS011;13106;50.808;5.670;2023-05-27T12:53:59;12.95;;;3.45;;
25125;SDS011;13106;50.808;5.670;2023-05-27T12:56:25;10.73;;;3.25;;
25125;SDS011;13106;50.808;5.670;2023-05-27T12:58:51;9.88;;;3.50;;
25125;SDS011;13106;50.808;5.670;2023-05-27T13:01:17;12.20;;;3.55;;
25125;SDS011;13106;50.808;5.670;2023-05-27T13:03:43;12.52;;;3.20;;
25125;SDS011;13106;50.808;5.670;2023-05-27T13:06:09;9.30;;;3.05;;
25125;SDS011;13106;50.808;5.670;2023-05-27T13:08:35;13.93;;;3.65;;
25125;SDS011;13106;50.808;5.670;2023-05-27T13:11:01;9.80;;;3.20;;
25125;SDS011;13106;50.808;5.670;2023-05-27T13:13:27;10.73;;;3.67;;
25125;SDS011;13106;50.808;5.670;2023-05-27T13:15:54;13.65;;;3.90;;
25125;SDS011;13106;50.808;5.670;2023-05-27T13:18:20;15.65;;;3.33;;
25125;SDS011;13106;50.808;5.670;2023-05-27T13:20:46;8.55;;;3.08;;
25125;SDS011;13106;50.808;5.670;2023-05-27T13:23:12;13.07;;;3.25;;
25125;SDS011;13106;50.808;5.670;2023-05-27T13:25:38;11.88;;;3.60;;
25125;SDS011;13106;50.808;5.670;2023-05-27T13:28:05;10.95;;;3.40;;
25125;SDS011;13106;50.808;5.670;2023-05-27T13:30:31;11.77;;;3.67;;
25125;SDS011;13106;50.808;5.670;2023-05-27T13:32:57;8.90;;;3.10;;
25125;SDS011;13106;50.808;5.670;2023-05-27T13:35:23;10.88;;;3.65;;
25125;SDS011;13106;50.808;5.670;2023-05-27T13:37:49;11.00;;;3.35;;
25125;SDS011;13106;50.808;5.670;2023-05-27T13:40:15;9.65;;;3.08;;
25125;SDS011;13106;50.808;5.670;2023-05-27T13:42:41;10.82;;;3.30;;
25125;SDS011;13106;50.808;5.670;2023-05-27T13:45:07;8.18;;;2.95;;
25125;SDS011;13106;50.808;5.670;2023-05-27T13:47:34;9.57;;;3.10;;
25125;SDS011;13106;50.808;5.670;2023-05-27T13:50:04;12.20;;;3.90;;
25125;SDS011;13106;50.808;5.670;2023-05-27T13:52:30;10.07;;;3.42;;
25125;SDS011;13106;50.808;5.670;2023-05-27T13:54:56;7.57;;;2.92;;
25125;SDS011;13106;50.808;5.670;2023-05-27T13:57:22;13.02;;;3.45;;
25125;SDS011;13106;50.808;5.670;2023-05-27T13:59:48;9.05;;;3.17;;
25125;SDS011;13106;50.808;5.670;2023-05-27T14:02:14;8.77;;;3.03;;
25125;SDS011;13106;50.808;5.670;2023-05-27T14:04:40;11.02;;;3.22;;
25125;SDS011;13106;50.808;5.670;2023-05-27T14:07:06;13.43;;;3.63;;
25125;SDS011;13106;50.808;5.670;2023-05-27T14:09:32;11.02;;;3.28;;
25125;SDS011;13106;50.808;5.670;2023-05-27T14:11:58;13.73;;;4.13;;
25125;SDS011;13106;50.808;5.670;2023-05-27T14:14:25;13.32;;;3.63;;
25125;SDS011;13106;50.808;5.670;2023-05-27T14:16:51;13.48;;;3.40;;
25125;SDS011;13106;50.808;5.670;2023-05-27T14:19:17;11.63;;;3.55;;
25125;SDS011;13106;50.808;5.670;2023-05-27T14:21:44;15.10;;;3.72;;
25125;SDS011;13106;50.808;5.670;2023-05-27T14:24:10;12.23;;;3.53;;
25125;SDS011;13106;50.808;5.670;2023-05-27T14:26:37;15.77;;;3.67;;
25125;SDS011;13106;50.808;5.670;2023-05-27T14:29:03;12.35;;;3.60;;
25125;SDS011;13106;50.808;5.670;2023-05-27T14:31:30;13.32;;;3.65;;
25125;SDS011;13106;50.808;5.670;2023-05-27T14:33:56;16.20;;;3.67;;
25125;SDS011;13106;50.808;5.670;2023-05-27T14:36:22;11.73;;;4.00;;
25125;SDS011;13106;50.808;5.670;2023-05-27T14:38:48;11.02;;;4.47;;
25125;SDS011;13106;50.808;5.670;2023-05-27T14:41:14;13.35;;;3.80;;
25125;SDS011;13106;50.808;5.670;2023-05-27T14:43:40;9.68;;;3.30;;
25125;SDS011;13106;50.808;5.670;2023-05-27T14:46:06;8.10;;;3.25;;